createdAt,value
2022-08-24T00:00:13.850Z,20.3
2022-08-24T00:02:16.005Z,20.3
2022-08-24T00:04:18.084Z,20.2
2022-08-24T00:06:20.190Z,20.3
2022-08-24T00:08:22.315Z,20.2
2022-08-24T00:10:27.563Z,20.2
2022-08-24T00:12:29.665Z,20.2
2022-08-24T00:16:33.975Z,20.2
2022-08-24T00:18:36.017Z,20.3
2022-08-24T00:20:40.936Z,20.2
2022-08-24T00:22:40.232Z,20.3
2022-08-24T00:24:45.529Z,20.3
2022-08-24T00:26:47.635Z,20.3
2022-08-24T00:28:49.738Z,20.2
2022-08-24T00:29:52.385Z,20.3
2022-08-24T00:31:54.581Z,20.2
2022-08-24T00:33:56.606Z,20.3
2022-08-24T00:35:58.723Z,20.2
2022-08-24T00:38:04.217Z,20.2
2022-08-24T00:40:06.148Z,20.3
2022-08-24T00:42:08.214Z,20.2
2022-08-24T00:44:10.315Z,20.1
2022-08-24T00:48:14.555Z,20.2
2022-08-24T00:50:16.678Z,20
2022-08-24T00:54:24.043Z,20
2022-08-24T00:56:26.151Z,20.1
2022-08-24T00:58:28.276Z,20
2022-08-24T01:00:30.391Z,20.1
2022-08-24T01:02:32.618Z,20
2022-08-24T01:04:34.593Z,20.1
2022-08-24T01:06:39.862Z,20
2022-08-24T01:10:44.090Z,20
2022-08-24T01:14:48.307Z,19.9
2022-08-24T01:16:50.435Z,19.9
2022-08-24T01:18:52.551Z,20
2022-08-24T01:20:57.823Z,19.8
2022-08-24T01:22:59.912Z,19.9
2022-08-24T01:26:04.661Z,19.9
2022-08-24T01:28:06.983Z,19.7
2022-08-24T01:30:08.902Z,19.8
2022-08-24T01:32:10.999Z,19.8
2022-08-24T01:34:16.265Z,19.7
2022-08-24T01:36:18.361Z,19.7
2022-08-24T01:38:20.525Z,19.7
2022-08-24T01:40:22.660Z,19.7
2022-08-24T01:42:24.727Z,19.7
2022-08-24T01:44:26.834Z,19.6
2022-08-24T01:46:28.997Z,19.6
2022-08-24T01:48:34.205Z,19.5
2022-08-24T01:50:36.324Z,19.6
2022-08-24T01:53:03.495Z,19.6
2022-08-24T01:54:40.554Z,19.5
2022-08-24T01:58:44.776Z,19.4
2022-08-24T02:00:46.891Z,19.4
2022-08-24T02:02:52.221Z,19.2
2022-08-24T02:04:54.287Z,19.3
2022-08-24T02:06:56.429Z,19.2
2022-08-24T02:08:58.518Z,19.1
2022-08-24T02:15:04.883Z,19
2022-08-24T02:17:10.169Z,19
2022-08-24T02:21:14.392Z,19.1
2022-08-24T02:23:43.060Z,19
2022-08-24T02:25:45.179Z,19.1
2022-08-24T02:27:47.279Z,19
2022-08-24T02:29:52.555Z,19.1
2022-08-24T02:31:54.690Z,19.1
2022-08-24T02:33:56.813Z,19.1
2022-08-24T02:35:58.918Z,19.2
2022-08-24T02:38:01.026Z,19.2
2022-08-24T02:42:05.276Z,19
2022-08-24T02:46:14.236Z,19
2022-08-24T02:48:16.281Z,19
2022-08-24T02:50:18.394Z,19
2022-08-24T02:56:24.735Z,19.1
2022-08-24T03:08:40.611Z,19
2022-08-24T03:10:42.749Z,18.9
2022-08-24T03:14:50.125Z,18.8
2022-08-24T03:16:52.252Z,18.8
2022-08-24T03:17:54.878Z,18.8
2022-08-24T03:19:56.984Z,18.8
2022-08-24T03:21:59.119Z,18.8
2022-08-24T03:24:01.242Z,18.8
2022-08-24T03:26:06.521Z,18.8
2022-08-24T03:28:11.066Z,18.8
2022-08-24T03:30:10.729Z,18.7
2022-08-24T03:32:12.856Z,18.6
2022-08-24T03:34:14.968Z,18.7
2022-08-24T03:40:25.001Z,18.3
2022-08-24T03:46:30.857Z,18.1
2022-08-24T03:48:32.963Z,18.2
2022-08-24T03:50:35.070Z,18.2
2022-08-24T03:52:37.193Z,18.1
2022-08-24T03:54:42.458Z,18.1
2022-08-24T03:56:44.545Z,18.2
2022-08-24T03:58:46.679Z,18.2
2022-08-24T04:02:50.932Z,18.2
2022-08-24T04:04:53.016Z,18.1
2022-08-24T04:06:55.127Z,18.2
2022-08-24T04:09:00.426Z,18.2
2022-08-24T04:11:02.513Z,18.1
2022-08-24T04:13:04.841Z,18.3
2022-08-24T04:14:07.273Z,18.1
2022-08-24T04:16:09.418Z,18.2
2022-08-24T04:18:11.477Z,18.2
2022-08-24T04:20:13.621Z,18.2
2022-08-24T04:22:18.895Z,18.2
2022-08-24T04:24:20.996Z,18.1
2022-08-24T04:26:34.131Z,18.2
2022-08-24T04:28:25.225Z,18.1
2022-08-24T04:30:27.349Z,18.1
2022-08-24T04:34:31.603Z,18.1
2022-08-24T04:36:36.862Z,18.1
2022-08-24T04:38:38.990Z,18.1
2022-08-24T04:40:41.114Z,18.2
2022-08-24T04:42:43.240Z,18.2
2022-08-24T04:44:45.350Z,18.1
2022-08-24T04:48:49.600Z,18.2
2022-08-24T04:50:54.881Z,18.2
2022-08-24T04:52:56.978Z,18.2
2022-08-24T04:54:59.105Z,18.2
2022-08-24T04:57:01.440Z,18.2
2022-08-24T04:59:03.372Z,18.1
2022-08-24T05:01:05.630Z,18.2
2022-08-24T05:10:19.719Z,18.4
2022-08-24T05:12:21.847Z,18.4
2022-08-24T05:14:28.407Z,18.5
2022-08-24T05:16:26.221Z,18.5
2022-08-24T05:18:31.395Z,18.6
2022-08-24T05:20:33.519Z,18.5
2022-08-24T05:26:39.894Z,18.7
2022-08-24T05:28:42.015Z,18.9
2022-08-24T05:30:44.174Z,18.9
2022-08-24T05:32:49.394Z,19
2022-08-24T05:34:51.522Z,19.1
2022-08-24T05:36:53.640Z,19.1
2022-08-24T05:38:55.741Z,19.3
2022-08-24T05:40:57.882Z,19.4
2022-08-24T05:43:00.026Z,19.5
2022-08-24T05:45:02.107Z,19.6
2022-08-24T05:47:07.360Z,19.7
2022-08-24T05:49:09.483Z,19.6
2022-08-24T05:51:11.629Z,19.6
2022-08-24T05:57:17.966Z,19.8
2022-08-24T05:59:20.053Z,19.9
2022-08-24T06:01:25.383Z,20
2022-08-24T06:03:27.474Z,20.1
2022-08-24T06:05:29.599Z,20.2
2022-08-24T06:07:58.242Z,20.6
2022-08-24T06:10:14.773Z,20.6
2022-08-24T06:12:02.459Z,20.7
2022-08-24T06:14:07.897Z,20.6
2022-08-24T06:16:20.725Z,20.6
2022-08-24T06:18:12.008Z,20.7
2022-08-24T06:20:14.082Z,20.7
2022-08-24T06:22:16.183Z,20.8
2022-08-24T06:24:18.328Z,21
2022-08-24T06:26:23.186Z,21.2
2022-08-24T06:28:25.705Z,21.4
2022-08-24T06:30:30.236Z,21.5
2022-08-24T06:32:29.867Z,21.5
2022-08-24T06:34:32.341Z,21.6
2022-08-24T06:36:34.095Z,21.9
2022-08-24T06:38:36.167Z,21.9
2022-08-24T06:40:38.293Z,22
2022-08-24T06:42:43.561Z,22.2
2022-08-24T06:44:45.647Z,22.2
2022-08-24T06:46:47.773Z,22.3
2022-08-24T06:48:49.868Z,22.3
2022-08-24T06:50:51.968Z,22.2
2022-08-24T06:52:54.052Z,22.2
2022-08-24T06:54:56.162Z,22.4
2022-08-24T06:57:01.410Z,22.7
2022-08-24T06:59:03.533Z,22.8
2022-08-24T07:01:05.612Z,23
2022-08-24T07:04:10.353Z,23
2022-08-24T07:06:12.430Z,23.2
2022-08-24T07:08:14.558Z,23.3
2022-08-24T07:10:22.062Z,23.5
2022-08-24T07:12:21.902Z,23.6
2022-08-24T07:14:23.987Z,23.6
2022-08-24T07:16:26.249Z,23.5
2022-08-24T07:18:28.197Z,23.6
2022-08-24T07:20:30.284Z,23.6
2022-08-24T07:22:32.362Z,23.6
2022-08-24T07:24:37.631Z,23.8
2022-08-24T07:26:39.691Z,23.8
2022-08-24T07:28:41.803Z,23.9
2022-08-24T07:30:43.953Z,23.8
2022-08-24T07:34:48.052Z,24.1
2022-08-24T07:36:50.142Z,24.1
2022-08-24T07:38:55.405Z,24.4
2022-08-24T07:41:20.326Z,24.5
2022-08-24T07:42:59.550Z,24.3
2022-08-24T07:51:07.913Z,24.8
2022-08-24T07:53:16.240Z,24.8
2022-08-24T07:55:15.190Z,25
2022-08-24T07:57:17.250Z,25
2022-08-24T07:58:19.868Z,25.1
2022-08-24T08:00:21.936Z,25.1
2022-08-24T08:02:24.119Z,25.2
2022-08-24T08:04:26.066Z,25.2
2022-08-24T08:06:31.306Z,25.1
2022-08-24T08:08:33.375Z,25.2
2022-08-24T08:12:37.491Z,25.7
2022-08-24T08:14:39.560Z,25.8
2022-08-24T08:16:41.633Z,26
2022-08-24T08:18:43.665Z,26.1
2022-08-24T08:20:48.904Z,26.2
2022-08-24T08:22:50.952Z,26.1
2022-08-24T08:26:55.068Z,26.2
2022-08-24T08:28:57.109Z,26.3
2022-08-24T08:30:59.210Z,26.3
2022-08-24T08:33:01.188Z,26.2
2022-08-24T08:35:07.969Z,26.5
2022-08-24T08:37:09.982Z,26.5
2022-08-24T08:39:12.007Z,26.5
2022-08-24T08:41:14.043Z,26.3
2022-08-24T08:43:16.104Z,26.3
2022-08-24T08:45:18.124Z,26.6
2022-08-24T08:47:20.188Z,26.8
2022-08-24T08:49:25.359Z,26.8
2022-08-24T08:51:27.382Z,27
2022-08-24T08:54:32.098Z,26.7
2022-08-24T08:56:34.072Z,26.8
2022-08-24T08:58:36.096Z,27.1
2022-08-24T09:00:38.117Z,27.1
2022-08-24T09:02:43.289Z,27.1
2022-08-24T09:04:45.417Z,27
2022-08-24T09:06:47.339Z,26.9
2022-08-24T09:08:52.152Z,26.8
2022-08-24T09:10:51.384Z,26.9
2022-08-24T09:12:53.393Z,27.3
2022-08-24T09:14:55.430Z,27.6
2022-08-24T09:17:00.684Z,27.6
2022-08-24T09:19:02.641Z,27.6
2022-08-24T09:21:04.848Z,27.8
2022-08-24T09:23:06.680Z,28.2
2022-08-24T09:25:08.689Z,27.9
2022-08-24T09:27:10.704Z,27.7
2022-08-24T09:29:12.705Z,27.6
2022-08-24T09:31:18.012Z,27.5
2022-08-24T09:33:19.925Z,27.5
2022-08-24T09:41:27.923Z,28
2022-08-24T09:47:37.094Z,28.4
2022-08-24T09:49:39.111Z,28.3
2022-08-24T09:52:07.583Z,28.6
2022-08-24T09:54:09.579Z,28.6
2022-08-24T09:56:11.656Z,28.5
2022-08-24T09:58:16.748Z,28.5
2022-08-24T10:00:18.805Z,28.7
2022-08-24T10:06:24.760Z,29.2
2022-08-24T10:08:26.683Z,29.1
2022-08-24T10:10:28.688Z,29.3
2022-08-24T10:18:39.793Z,28.7
2022-08-24T10:20:41.758Z,28.5
2022-08-24T10:22:43.833Z,28.6
2022-08-24T10:24:45.694Z,28.6
2022-08-24T10:26:50.874Z,28.6
2022-08-24T10:28:52.841Z,28.5
2022-08-24T10:30:54.827Z,28.9
2022-08-24T10:32:56.783Z,29
2022-08-24T10:34:58.769Z,29.1
2022-08-24T10:37:00.729Z,28.9
2022-08-24T10:39:02.738Z,28.8
2022-08-24T10:41:07.919Z,28.9
2022-08-24T10:43:09.867Z,29
2022-08-24T10:45:11.864Z,29
2022-08-24T10:48:16.398Z,28.9
2022-08-24T10:50:18.383Z,29.3
2022-08-24T10:52:20.357Z,29.2
2022-08-24T10:54:25.484Z,28.8
2022-08-24T10:56:27.451Z,28.8
2022-08-24T10:58:29.435Z,28.7
2022-08-24T11:00:31.398Z,28.6
2022-08-24T11:04:35.354Z,28.5
2022-08-24T11:06:37.304Z,28.7
2022-08-24T11:08:42.462Z,28.7
2022-08-24T11:10:44.425Z,28.7
2022-08-24T11:12:46.391Z,28.7
2022-08-24T11:14:48.391Z,28.7
2022-08-24T11:16:52.634Z,28.8
2022-08-24T11:18:52.324Z,29.3
2022-08-24T11:20:54.284Z,29.5
2022-08-24T11:22:59.440Z,29.9
2022-08-24T11:25:01.407Z,30
2022-08-24T11:27:03.362Z,30.2
2022-08-24T11:29:05.346Z,30.4
2022-08-24T11:31:07.343Z,30.2
2022-08-24T11:33:09.265Z,30.1
2022-08-24T11:35:11.231Z,29.7
2022-08-24T11:37:16.364Z,29.3
2022-08-24T11:39:18.337Z,29.3
2022-08-24T11:41:20.344Z,29.6
2022-08-24T11:44:24.804Z,29.7
2022-08-24T11:46:26.816Z,29.6
2022-08-24T11:48:29.888Z,29.4
2022-08-24T11:50:33.898Z,29.7
2022-08-24T11:52:35.864Z,29.6
2022-08-24T11:54:37.817Z,29.9
2022-08-24T11:56:39.771Z,30.2
2022-08-24T11:58:41.733Z,30.3
2022-08-24T12:00:43.675Z,30.1
2022-08-24T12:02:45.697Z,30.1
2022-08-24T12:04:50.790Z,29.8
2022-08-24T12:06:55.890Z,29.8
2022-08-24T12:10:56.638Z,29.7
2022-08-24T12:12:58.585Z,29.8
2022-08-24T12:19:07.664Z,30.1
2022-08-24T12:25:13.533Z,30.3
2022-08-24T12:29:17.441Z,30.4
2022-08-24T12:31:19.414Z,30.1
2022-08-24T12:33:24.519Z,30.1
2022-08-24T12:35:26.448Z,30.1
2022-08-24T12:37:28.401Z,30.3
2022-08-24T12:38:30.968Z,30.5
2022-08-24T12:40:33.077Z,30.7
2022-08-24T12:42:34.880Z,30.6
2022-08-24T12:44:36.833Z,30.7
2022-08-24T12:56:51.663Z,30.6
2022-08-24T13:01:01.635Z,31.5
2022-08-24T13:03:00.666Z,31.7
2022-08-24T13:05:02.618Z,32.2
2022-08-24T13:09:06.454Z,31.8
2022-08-24T13:11:08.395Z,31.6
2022-08-24T13:13:10.235Z,31.7
2022-08-24T13:15:15.311Z,31.8
2022-08-24T13:17:17.228Z,31.4
2022-08-24T13:19:19.108Z,31.1
2022-08-24T13:21:21.036Z,31.5
2022-08-24T13:23:22.953Z,31.5
2022-08-24T13:27:26.723Z,31.4
2022-08-24T13:31:33.801Z,30.9
2022-08-24T13:33:35.629Z,30.7
2022-08-24T13:36:03.974Z,30.6
2022-08-24T13:38:06.070Z,30.5
2022-08-24T13:40:07.850Z,30.4
2022-08-24T13:42:12.852Z,30.3
2022-08-24T13:44:14.746Z,30.3
2022-08-24T13:46:16.774Z,30.4
2022-08-24T13:48:18.539Z,30.5
2022-08-24T13:50:20.443Z,30.6
2022-08-24T13:52:22.362Z,30.7
2022-08-24T13:54:25.158Z,31.2
2022-08-24T13:56:32.537Z,31.4
2022-08-24T13:58:31.283Z,31.6
2022-08-24T14:00:33.177Z,32.3
2022-08-24T14:02:35.086Z,32.7
2022-08-24T14:04:37.004Z,32.8
2022-08-24T14:06:38.884Z,32.9
2022-08-24T14:08:40.809Z,32.8
2022-08-24T14:10:45.844Z,33
2022-08-24T14:12:47.723Z,33.4
2022-08-24T14:14:49.586Z,33.4
2022-08-24T14:16:51.439Z,33.4
2022-08-24T14:18:53.296Z,33.6
2022-08-24T14:20:55.111Z,34.3
2022-08-24T14:22:56.958Z,34.5
2022-08-24T14:25:02.049Z,33.2
2022-08-24T14:27:05.332Z,33
2022-08-24T14:29:07.117Z,32.8
2022-08-24T14:30:09.624Z,32.7
2022-08-24T14:32:12.609Z,32.9
2022-08-24T14:34:13.220Z,32.9
2022-08-24T14:36:15.001Z,32.2
2022-08-24T14:38:20.104Z,32.1
2022-08-24T14:40:21.957Z,32.6
2022-08-24T14:44:25.460Z,33
2022-08-24T14:46:29.156Z,32.8
2022-08-24T14:48:29.087Z,32.5
2022-08-24T14:50:30.880Z,32.5
2022-08-24T14:52:35.884Z,32.2
2022-08-24T14:54:37.703Z,32.3
2022-08-24T14:58:41.308Z,32.7
2022-08-24T15:00:43.165Z,32.9
2022-08-24T15:02:44.924Z,33.6
2022-08-24T15:04:46.717Z,33.8
2022-08-24T15:06:51.728Z,34.4
2022-08-24T15:10:55.298Z,33.9
2022-08-24T15:13:02.838Z,33.5
2022-08-24T15:14:58.888Z,33.3
2022-08-24T15:17:00.622Z,33.5
2022-08-24T15:21:07.397Z,34
2022-08-24T15:23:09.092Z,34
2022-08-24T15:25:10.835Z,34
2022-08-24T15:28:15.050Z,33.6
2022-08-24T15:30:16.797Z,33.9
2022-08-24T15:32:18.510Z,33.7
2022-08-24T15:38:26.917Z,33.4
2022-08-24T15:40:28.662Z,33.7
2022-08-24T15:42:30.347Z,33.4
2022-08-24T15:44:32.102Z,33.1
2022-08-24T15:46:33.908Z,32.8
2022-08-24T15:50:40.544Z,32.4
2022-08-24T15:54:44.093Z,32.1
2022-08-24T15:58:47.653Z,33.8
2022-08-24T16:00:49.409Z,34.4
2022-08-24T16:02:54.409Z,34.9
2022-08-24T16:04:56.184Z,35
2022-08-24T16:06:57.981Z,35.6
2022-08-24T16:08:59.744Z,35.7
2022-08-24T16:11:01.533Z,35.6
2022-08-24T16:13:03.242Z,36.1
2022-08-24T16:15:04.991Z,36.6
2022-08-24T16:17:09.985Z,36.8
2022-08-24T16:19:11.677Z,36.8
2022-08-24T16:21:13.486Z,37.2
2022-08-24T16:22:15.869Z,37.4
2022-08-24T16:24:17.572Z,37.1
2022-08-24T16:26:19.271Z,37.2
2022-08-24T16:28:20.984Z,37.2
2022-08-24T16:30:25.938Z,36.6
2022-08-24T16:32:31.846Z,36.5
2022-08-24T16:34:29.271Z,35.2
2022-08-24T16:36:30.993Z,33.7
2022-08-24T16:38:32.695Z,33.1
2022-08-24T16:40:34.462Z,32.8
2022-08-24T16:44:41.047Z,31.9
2022-08-24T16:46:42.789Z,31.9
2022-08-24T16:48:44.550Z,31.8
2022-08-24T16:50:50.592Z,31.5
2022-08-24T16:52:48.118Z,31.5
2022-08-24T16:54:49.914Z,31.3
2022-08-24T16:56:51.717Z,31.3
2022-08-24T16:58:56.708Z,31.1
2022-08-24T17:00:58.604Z,31
2022-08-24T17:03:00.391Z,31.1
2022-08-24T17:05:02.315Z,31.1
2022-08-24T17:07:04.117Z,30.8
2022-08-24T17:09:05.952Z,30.6
2022-08-24T17:11:07.806Z,30.6
2022-08-24T17:13:27.712Z,31
2022-08-24T17:15:14.763Z,31
2022-08-24T17:17:16.647Z,30.7
2022-08-24T17:19:45.026Z,31.1
2022-08-24T17:21:46.913Z,31.2
2022-08-24T17:23:48.814Z,31.2
2022-08-24T17:25:54.084Z,30.8
2022-08-24T17:27:55.799Z,30.7
2022-08-24T17:29:57.701Z,30.4
2022-08-24T17:31:59.712Z,30.4
2022-08-24T17:34:01.552Z,30.4
2022-08-24T17:36:03.595Z,30.5
2022-08-24T17:38:05.478Z,30.4
2022-08-24T17:40:10.572Z,29.7
2022-08-24T17:42:33.809Z,29.6
2022-08-24T17:46:16.370Z,29.2
2022-08-24T17:48:18.232Z,29
2022-08-24T17:50:20.167Z,29
2022-08-24T17:52:22.127Z,29
2022-08-24T17:54:27.244Z,28.8
2022-08-24T17:56:29.206Z,28.7
2022-08-24T17:58:31.171Z,28.7
2022-08-24T18:00:33.127Z,28.7
2022-08-24T18:02:35.086Z,28.5
2022-08-24T18:04:37.176Z,28.6
2022-08-24T18:06:39.014Z,28.4
2022-08-24T18:08:44.173Z,28.2
2022-08-24T18:10:46.194Z,28.2
2022-08-24T18:12:48.120Z,28.3
2022-08-24T18:13:50.719Z,28.1
2022-08-24T18:15:52.695Z,28.1
2022-08-24T18:19:56.653Z,28
2022-08-24T18:22:01.915Z,27.8
2022-08-24T18:24:03.819Z,27.8
2022-08-24T18:26:05.836Z,27.8
2022-08-24T18:28:07.848Z,27.6
2022-08-24T18:30:09.827Z,27.6
2022-08-24T18:34:13.852Z,27.4
2022-08-24T18:36:19.011Z,27.4
2022-08-24T18:38:21.021Z,27.4
2022-08-24T18:40:23.106Z,27.3
2022-08-24T18:42:25.028Z,27.4
2022-08-24T18:44:31.096Z,27.3
2022-08-24T18:46:29.041Z,27.2
2022-08-24T18:48:31.048Z,27.2
2022-08-24T18:50:41.504Z,27
2022-08-24T18:54:40.324Z,27
2022-08-24T18:56:42.326Z,26.8
2022-08-24T18:58:44.352Z,26.9
2022-08-24T19:00:46.545Z,26.8
2022-08-24T19:02:48.411Z,26.8
2022-08-24T19:10:00.306Z,26.5
2022-08-24T19:12:02.392Z,26.6
2022-08-24T19:14:04.366Z,26.4
2022-08-24T19:16:06.410Z,26.3
2022-08-24T19:18:11.605Z,26.4
2022-08-24T19:20:13.626Z,26.3
2022-08-24T19:22:15.648Z,26.3
2022-08-24T19:24:17.683Z,26.2
2022-08-24T19:26:19.702Z,26.2
2022-08-24T19:32:28.956Z,26
2022-08-24T19:34:30.981Z,25.9
2022-08-24T19:36:33.012Z,25.8
2022-08-24T19:38:35.056Z,25.9
2022-08-24T19:40:37.061Z,25.8
2022-08-24T19:44:44.090Z,25.7
2022-08-24T19:46:46.515Z,25.7
2022-08-24T19:48:48.371Z,25.6
2022-08-24T19:50:50.406Z,25.6
2022-08-24T19:52:52.460Z,25.6
2022-08-24T19:56:56.525Z,25.6
2022-08-24T19:58:58.568Z,25.4
2022-08-24T20:01:04.020Z,25.4
2022-08-24T20:03:06.006Z,25.4
2022-08-24T20:05:07.860Z,25.4
2022-08-24T20:12:17.553Z,25.3
2022-08-24T20:18:28.389Z,25
2022-08-24T20:20:30.407Z,25
2022-08-24T20:24:34.496Z,24.9
2022-08-24T20:26:36.540Z,24.9
2022-08-24T20:28:41.805Z,24.8
2022-08-24T20:30:43.842Z,24.8
2022-08-24T20:32:45.886Z,24.7
2022-08-24T20:34:47.945Z,24.6
2022-08-24T20:36:50.006Z,24.6
2022-08-24T20:38:52.070Z,24.6
2022-08-24T20:42:59.414Z,24.6
2022-08-24T20:51:07.564Z,24.4
2022-08-24T20:53:09.619Z,24.4
2022-08-24T20:55:11.663Z,24.4
2022-08-24T20:57:16.901Z,24.4
2022-08-24T20:59:18.982Z,24.4
2022-08-24T21:01:21.068Z,24.4
2022-08-24T21:03:49.661Z,24.3
2022-08-24T21:05:51.675Z,24.3
2022-08-24T21:07:53.745Z,24.2
2022-08-24T21:09:59.457Z,24.2
2022-08-24T21:12:01.043Z,24.3
2022-08-24T21:14:03.113Z,24.2
2022-08-24T21:16:05.184Z,24.3
2022-08-24T21:18:07.232Z,24.2
2022-08-24T21:20:09.296Z,24.1
2022-08-24T21:22:11.372Z,24.2
2022-08-24T21:24:16.620Z,24
2022-08-24T21:26:18.670Z,24.1
2022-08-24T21:28:20.753Z,24.1
2022-08-24T21:30:22.856Z,24
2022-08-24T21:32:24.901Z,24
2022-08-24T21:34:28.016Z,24.1
2022-08-24T21:36:29.011Z,23.9
2022-08-24T21:38:34.256Z,23.9
2022-08-24T21:40:36.474Z,23.8
2022-08-24T21:42:38.396Z,23.8
2022-08-24T21:44:40.478Z,23.8
2022-08-24T21:46:42.712Z,23.8
2022-08-24T21:48:44.631Z,23.7
2022-08-24T21:50:46.692Z,23.7
2022-08-24T21:54:54.022Z,23.6
2022-08-24T21:56:56.125Z,23.7
2022-08-24T21:57:58.750Z,23.5
2022-08-24T22:00:00.832Z,23.5
2022-08-24T22:02:02.942Z,23.5
2022-08-24T22:04:04.962Z,23.5
2022-08-24T22:06:10.240Z,23.4
2022-08-24T22:08:12.367Z,23.4
2022-08-24T22:10:14.344Z,23.5
2022-08-24T22:12:16.433Z,23.4
2022-08-24T22:14:18.507Z,23.4
2022-08-24T22:16:20.672Z,23.3
2022-08-24T22:18:22.848Z,23.3
2022-08-24T22:20:27.918Z,23.3
2022-08-24T22:22:29.986Z,23.3
2022-08-24T22:24:32.082Z,23.3
2022-08-24T22:26:34.162Z,23.2
2022-08-24T22:28:36.251Z,23.3
2022-08-24T22:30:38.328Z,23.3
2022-08-24T22:32:40.402Z,23.3
2022-08-24T22:34:45.652Z,23.1
2022-08-24T22:36:47.717Z,23.2
2022-08-24T22:38:49.807Z,23
2022-08-24T22:40:51.905Z,23.1
2022-08-24T22:42:53.977Z,23.1
2022-08-24T22:44:57.271Z,23
2022-08-24T22:46:58.411Z,23
2022-08-24T22:53:07.832Z,23
2022-08-24T22:54:10.449Z,23
2022-08-24T22:56:12.536Z,22.8
2022-08-24T23:00:17.006Z,22.9
2022-08-24T23:02:21.970Z,22.9
2022-08-24T23:04:24.138Z,22.9
2022-08-24T23:06:26.148Z,22.9
2022-08-24T23:08:28.246Z,22.8
2022-08-24T23:10:30.293Z,22.8
2022-08-24T23:12:32.402Z,22.8
2022-08-24T23:14:34.496Z,22.8
2022-08-24T23:16:39.732Z,22.7
2022-08-24T23:18:41.866Z,22.8
2022-08-24T23:20:43.899Z,22.6
2022-08-24T23:24:48.068Z,22.6
2022-08-24T23:26:50.166Z,22.6
2022-08-24T23:28:52.269Z,22.6
2022-08-24T23:30:57.501Z,22.5
2022-08-24T23:32:59.690Z,22.5
2022-08-24T23:37:03.749Z,22.4
2022-08-24T23:41:07.927Z,22.4
2022-08-24T23:43:10.007Z,22.3
2022-08-24T23:47:17.383Z,22.4
2022-08-24T23:50:22.066Z,22.4
2022-08-24T23:52:26.567Z,22.3
2022-08-24T23:54:26.260Z,22.3
2022-08-24T23:56:28.336Z,22.3
2022-08-24T23:58:33.600Z,22.3
